Flight Track Log - Related Links

Times and Time Zones

All times are in EDT time to prevent confusion due to time zone crossing. See the EJA619 flight status page for this flight to view local times or setup timezone preferences in your user account.

Time Position Orientation Groundspeed Altitude Reporting Facility
EDT Latitude Longitude Course Direction KTS MPH feet Rate Location/Type
Sat 10:12:24 AM 32.9497 -79.9097 28° Northeast 230 265 7,600  Level Jacksonville Center
Sat 10:13:24 AM 32.9808 -79.8144 69° East 251 289 10,100 2,450 Climbing Jacksonville Center
Sat 10:14:24 AM 33.0119 -79.7267 67° East 274 315 12,500 2,500 Climbing Jacksonville Center
Sat 10:15:24 AM 33.0642 -79.6481 52° Northeast 286 329 15,100 2,350 Climbing Jacksonville Center
Sat 10:16:00 AM 33.2302 -79.3473 28° Northeast  Level FlightAware Approximate
Sat 10:16:24 AM 33.1336 -79.5836 38° Northeast 291 335 17,200  Level Jacksonville Center
Sat 10:17:00 AM 33.3306 -79.2828 28° Northeast  Level FlightAware Approximate
Sat 10:17:24 AM 33.2092 -79.5186 36° Northeast 309 356 19,100  Level Jacksonville Center
Sat 10:18:24 AM 33.2844 -79.4514 37° Northeast 329 379 20,800 1,700 Climbing Jacksonville Center
Sat 10:19:24 AM 33.3658 -79.3786 37° Northeast 350 403 22,500 1,700 Climbing Jacksonville Center
Sat 10:20:24 AM 33.4514 -79.3031 36° Northeast 362 417 24,200 1,650 Climbing Jacksonville Center
Sat 10:21:24 AM 33.5350 -79.2297 36° Northeast 362 417 25,800 1,550 Climbing Jacksonville Center
Sat 10:22:24 AM 33.6203 -79.1539 37° Northeast 374 430 27,300 1,450 Climbing Jacksonville Center
Sat 10:23:24 AM 33.7058 -79.0803 36° Northeast 374 430 28,700 1,450 Climbing Jacksonville Center
Sat 10:24:24 AM 33.7953 -79.0017 36° Northeast 380 437 30,200 1,200 Climbing Jacksonville Center
Sat 10:25:24 AM 33.8867 -78.9200 37° Northeast 391 450 31,100 1,150 Climbing Jacksonville Center
Sat 10:26:24 AM 33.9819 -78.8381 35° Northeast 404 465 32,500 1,450 Climbing Jacksonville Center
Sat 10:27:24 AM 34.0711 -78.7536 38° Northeast 409 471 34,000 987 Climbing Jacksonville Center
Sat 10:28:56 AM 34.2019 -78.6378 36° Northeast 411 473 35,000 400 Climbing Washington Center
Sat 10:29:54 AM 34.3044 -78.5486 36° Northeast 423 487 35,000 202 Level Washington Center
Sat 10:30:55 AM 34.4175 -78.4442 37° Northeast 447 514 35,400 885 Climbing Washington Center
Sat 10:31:56 AM 34.5175 -78.3544 36° Northeast 452 520 36,800 1,462 Climbing Washington Center
Sat 10:32:54 AM 34.6156 -78.2644 37° Northeast 446 513 38,300 1,525 Climbing Washington Center
Sat 10:33:54 AM 34.7094 -78.1767 38° Northeast 433 498 39,800 1,300 Climbing Washington Center
Sat 10:34:54 AM 34.8031 -78.0911 37° Northeast 428 493 40,900 595 Climbing Washington Center
Sat 10:35:55 AM 34.8925 -78.0000 40° Northeast 422 486 41,000 49 Climbing Washington Center
Sat 10:36:56 AM 34.9922 -77.9092 37° Northeast 432 497 41,000  Level Washington Center
Sat 10:37:56 AM 35.0900 -77.8181 37° Northeast 432 497 41,000  Level Washington Center
Sat 10:38:54 AM 35.1856 -77.7292 37° Northeast 438 504 41,000  Level Washington Center
Sat 10:39:55 AM 35.2831 -77.6403 37° Northeast 443 510 41,000  Level Washington Center
Sat 10:40:56 AM 35.3764 -77.5536 37° Northeast 438 504 41,000  Level Washington Center
Sat 10:41:56 AM 35.4758 -77.4692 35° Northeast 432 497 41,000  Level Washington Center
Sat 10:42:54 AM 35.5711 -77.3822 37° Northeast 427 491 41,000  Level Washington Center
Sat 10:43:54 AM 35.6703 -77.2975 35° Northeast 427 491 41,000  Level Washington Center
Sat 10:44:55 AM 35.7633 -77.2150 36° Northeast 427 491 41,000  Level Washington Center
Sat 10:45:56 AM 35.8583 -77.1297 36° Northeast 427 491 41,000  Level Washington Center
Sat 10:46:54 AM 35.9364 -77.0569 37° Northeast 411 473 41,000  Level Washington Center
Sat 10:47:54 AM 36.0311 -76.9764 35° Northeast 411 473 41,000  Level Washington Center
Sat 10:48:55 AM 36.1300 -76.9061 30° Northeast 411 473 41,000  Level Washington Center
Sat 10:49:55 AM 36.2289 -76.8358 30° Northeast 405 466 41,000  Level Washington Center
Sat 10:50:56 AM 36.3297 -76.7600 31° Northeast 410 472 41,000  Level Washington Center
Sat 10:51:56 AM 36.4286 -76.6892 30° Northeast 410 472 41,000  Level Washington Center
Sat 10:52:57 AM 36.5292 -76.6181 30° Northeast 410 472 41,000  Level Washington Center
Sat 10:53:55 AM 36.6300 -76.5469 30° Northeast 410 472 41,000  Level Washington Center
Sat 10:54:56 AM 36.7392 -76.4603 32° Northeast 410 472 41,000  Level Washington Center
Sat 10:55:53 AM 36.8356 -76.3861 32° Northeast 410 472 41,000  Level Washington Center
Sat 10:56:54 AM 36.9364 -76.3092 31° Northeast 410 472 41,000  Level Washington Center
Sat 10:57:55 AM 37.0367 -76.2372 30° Northeast 415 478 41,000  Level Washington Center
Sat 10:58:56 AM 37.1394 -76.1597 31° Northeast 415 478 41,000  Level Washington Center
Sat 10:59:54 AM 37.2439 -76.0903 28° Northeast 415 478 41,000  Level Washington Center
Sat 11:00:54 AM 37.3464 -76.0150 30° Northeast 421 484 41,000  Level Washington Center
Sat 11:01:54 AM 37.4447 -75.9372 32° Northeast 421 484 41,000  Level Washington Center
Sat 11:02:55 AM 37.5431 -75.8642 30° Northeast 416 479 41,000  Level Washington Center
Sat 11:03:56 AM 37.6411 -75.7858 32° Northeast 416 479 41,000  Level Washington Center
Sat 11:04:54 AM 37.7372 -75.7153 30° Northeast 410 472 41,000  Level Washington Center
Sat 11:05:54 AM 37.8331 -75.6444 30° Northeast 403 464 41,000  Level Washington Center
Sat 11:06:55 AM 37.9292 -75.5706 31° Northeast 403 464 41,000  Level Washington Center
Sat 11:07:55 AM 38.0250 -75.4942 32° Northeast 403 464 41,000  Level Washington Center
Sat 11:08:56 AM 38.1125 -75.4122 36° Northeast 403 464 41,000  Level Washington Center
Sat 11:09:57 AM 38.1853 -75.3433 37° Northeast 397 457 41,000  Level Washington Center
Sat 11:10:54 AM 38.2872 -75.2347 40° Northeast 397 457 41,000  Level Washington Center
Sat 11:11:55 AM 38.3725 -75.1442 40° Northeast 397 457 41,000  Level Washington Center
Sat 11:12:55 AM 38.4806 -75.0983 18° North 389 448 41,000 -347 Level Washington Center
Sat 11:13:56 AM 38.5867 -75.0472 21° North 396 456 40,300 -893 Descending Washington Center
Sat 11:14:56 AM 38.6908 -74.9986 20° North 401 461 39,200 -1,513 Descending Washington Center
Sat 11:15:55 AM 38.7947 -74.9469 21° North 401 461 37,300 -1,950 Descending Washington Center
Sat 11:16:56 AM 38.8778 -74.8744 34° Northeast 394 453 35,300 -1,934 Descending Washington Center
Sat 11:17:56 AM 38.9625 -74.7775 42° Northeast 394 453 33,400 -1,966 Descending Washington Center
Sat 11:18:55 AM 39.0494 -74.6828 40° Northeast 400 460 31,400 -2,288 Descending Washington Center
Sat 11:20:36 AM 39.2103 -74.5006 41° Northeast 406 467 27,300 -2,444 Descending New York Center
Sat 11:21:37 AM 39.3033 -74.3956 41° Northeast 418 481 24,800 -2,479 Descending New York Center
Sat 11:22:37 AM 39.3942 -74.2900 42° Northeast 423 487 22,300 -1,884 Descending New York Center
Sat 11:23:38 AM 39.4825 -74.1894 41° Northeast 423 487 21,000 -942 Descending New York Center
Sat 11:24:38 AM 39.5650 -74.0778 46° Northeast 423 487 20,400 -793 Descending New York Center
Sat 11:25:39 AM 39.6369 -73.9597 52° Northeast 423 487 19,400 -712 Descending New York Center
Sat 11:26:36 AM 39.7172 -73.8475 47° Northeast 423 487 19,000 -203 Descending New York Center
Sat 11:27:37 AM 39.7989 -73.7456 44° Northeast 417 480 19,000  Level New York Center
Sat 11:28:39 AM 39.8850 -73.6383 44° Northeast 411 473 19,000 -464 Level New York Center
Sat 11:30:25 AM 40.0408 -73.4781 38° Northeast 406 467 17,700 -831 Descending Boston Center
Sat 11:31:25 AM 40.1189 -73.3733 46° Northeast 399 459 16,700 -1,500 Descending Boston Center
Sat 11:32:37 AM 40.1636 -73.2464 65° Northeast 384 442 14,400 -2,545 Descending Boston Center
Sat 11:33:37 AM 40.2125 -73.1139 64° Northeast 355 409 11,100 -1,750 Descending Boston Center
Sat 11:34:37 AM 40.2878 -73.0303 40° Northeast 338 389 10,900 -100 Descending Boston Center
Sat 11:35:37 AM 40.3653 -72.9439 40° Northeast 349 402 10,900  Level Boston Center
Sat 11:36:37 AM 40.4450 -72.8544 40° Northeast 365 420 10,900 -300 Level Boston Center
Sat 11:37:37 AM 40.5203 -72.7706 40° Northeast 360 414 10,300 -800 Descending Boston Center
Sat 11:38:37 AM 40.5850 -72.6942 42° Northeast 343 395 9,300 -700 Descending Boston Center
Sat 11:39:37 AM 40.6414 -72.6314 40° Northeast 304 350 8,900 -843 Descending Boston Center
Sat 11:41:42 AM 40.7833 -72.4833 38° Northeast 292 336 6,700 -1,168 Descending New York TRACON
Sat 11:42:42 AM 40.8333 -72.4000 52° Northeast 282 325 5,300 -850 Descending New York TRACON
Sat 11:43:42 AM 40.9000 -72.3333 37° Northeast 278 320 5,000 -150 Descending New York TRACON
Sat 11:44:42 AM 40.9667 -72.2833 30° Northeast 280 322 5,000  Level New York TRACON
Sat 11:45:46 AM 41.0372 -72.2419 24° Northeast 283 326 5,000 -192 Level Boston Center
Sat 11:46:47 AM 41.1164 -72.1975 23° Northeast 288 331 4,600 -934 Descending Boston Center
Sat 11:47:48 AM 41.1850 -72.1478 29° Northeast 281 323 3,100 -1,475 Descending Boston Center

Login

Don't have an account? Register now (free) for customized features, flight alerts, and more!